Terminal Aerodrome Forecast
Issued by NWS

Home | Current Version | Previous Version | Text Only | Print | Product List | Glossary On
Versions: 1 2 3 4 5 6 7 8 9 10 11 12 13 14 15 16 17 18 19 20
000
FTUS41 KBTV 281739
TAFMPV
TAF
KMPV 281739Z 2818/2918 28009G18KT P6SM SCT050 SCT200
     FM290000 22004KT P6SM SCT150 BKN200
     FM290600 VRB03KT P6SM OVC100
     FM291400 28005KT P6SM BKN060=

USA.gov is the U.S. government's official web portal to all federal, state and local government web resources and services.